Impacts METAR Board
IDs:

KSAN - San Diego Intl Arpt, CA, US

Updated at: 0300 UTC 06 Dec 2019
Potential Impact None Slight Moderate High
Time 05/15Z 05/16Z 05/17Z 05/18Z 05/19Z 05/20Z 05/21Z 05/22Z 05/23Z 06/00Z 06/01Z 06/02Z 06/03Z
Temp56 57 62 66 67 68 68 68 67 64 63 62 61
Dewpt55 57 58 58 55 56 57 57 59 57 58 58 58
Altim30.13 30.14 30.16 30.17 30.16 30.12 30.09 30.08 30.09 30.09 30.09 30.09 30.09
VIS10 8 10 10 10 10 10 10 10 10 10 10 10
CIG250 250 250 250 220 220 250 250 250 250 250 250 250
CoverBKNBKNBKNBKNBKNBKNBKNBKNBKNBKNBKNBKNBKN
FltCatVFRVFRVFRVFRVFRVFRVFRVFRVFRVFRVFRVFRVFR
WXBCFG------------------------
WDir5001300260270290310310320320200
WSpd3 0 3 0 3 6 8 7 7 7 6 5 0
WGst-- -- -- -- -- -- -- -- -- -- -- -- --
Raw hourly METARs
KSAN 051451Z 05003KT 10SM BCFG FEW016 SCT050 BKN250 13/13 A3013 RMK AO2 SLP203 T01330128 53021 $
KSAN 051551Z 00000KT 8SM FEW050 BKN250 14/14 A3014 RMK AO2 SLP206 T01390139
KSAN 051651Z 13003KT 10SM BKN250 17/14 A3016 RMK AO2 SLP211 T01670144 $
KSAN 051751Z 00000KT 10SM FEW020 FEW040 BKN250 19/14 A3017 RMK AO2 SLP215 T01890144 10189 20117 53013 $
KSAN 051851Z 26003KT 10SM FEW015 SCT035 BKN220 19/13 A3016 RMK AO2 SLP212 T01940128 $
KSAN 051951Z 27006KT 10SM SCT030 BKN220 20/13 A3012 RMK AO2 SLP198 T02000133 $
KSAN 052051Z 29008KT 10SM SCT025 BKN250 20/14 A3009 RMK AO2 SLP188 T02000139 58027 $
KSAN 052151Z 31007KT 10SM FEW025 BKN250 20/14 A3008 RMK AO2 SLP186 T02000139 /
KSAN 052251Z 31007KT 10SM FEW025 BKN250 19/15 A3009 RMK AO2 SLP189 T01940150 $
KSAN 052351Z 32007KT 10SM FEW025 BKN250 18/14 A3009 RMK AO2 SLP190 T01780139 10206 20178 53002 $
KSAN 060051Z 32006KT 10SM FEW025 BKN250 17/14 A3009 RMK AO2 SLP190 T01720144 $
KSAN 060151Z 02005KT 10SM FEW025 BKN250 17/14 A3009 RMK AO2 SLP190 T01670144 $
KSAN 060251Z 00000KT 10SM BKN250 16/14 A3009 RMK AO2 SLP190 T01610144 55000 $



Page loaded:  03:48 UTC  |   07:48 PM Pacific  |   08:48 PM Mountain  |   09:48 PM Central  |   10:48 PM Eastern

 

ADVISORIES

FORECASTS

FORECASTS

OBSERVATIONS

USER TOOLS

ABOUT US